createdAt,value
2022-08-26T00:00:06.776Z,15.82
2022-08-26T00:05:13.416Z,17.70
2022-08-26T00:10:14.149Z,17.80
2022-08-26T00:15:19.022Z,18.00
2022-08-26T00:20:25.277Z,15.68
2022-08-26T00:25:27.676Z,17.35
2022-08-26T00:30:31.256Z,16.95
2022-08-26T00:35:33.673Z,17.90
2022-08-26T00:40:36.619Z,17.63
2022-08-26T00:45:45.508Z,17.60
2022-08-26T00:50:51.665Z,17.55
2022-08-26T00:55:58.175Z,18.48
2022-08-26T01:01:00.271Z,16.65
2022-08-26T01:06:03.753Z,18.33
2022-08-26T01:11:05.881Z,18.33
2022-08-26T01:16:13.775Z,17.65
2022-08-26T01:21:26.887Z,17.70
2022-08-26T01:26:31.902Z,18.58
2022-08-26T01:31:39.676Z,18.88
2022-08-26T01:36:41.464Z,18.83
2022-08-26T01:41:45.421Z,19.50
2022-08-26T01:46:49.956Z,18.23
2022-08-26T01:51:54.628Z,18.98
2022-08-26T01:56:56.953Z,18.38
2022-08-26T02:01:58.385Z,18.25
2022-08-26T02:07:00.172Z,18.42
2022-08-26T02:12:02.876Z,19.17
2022-08-26T02:17:07.199Z,19.45
2022-08-26T02:22:14.998Z,18.55
2022-08-26T02:27:20.392Z,18.95
2022-08-26T02:32:21.630Z,18.95
2022-08-26T02:37:24.066Z,18.63
2022-08-26T02:42:27.448Z,18.48
2022-08-26T02:47:29.091Z,19.10
2022-08-26T02:52:30.013Z,18.75
2022-08-26T02:57:32.612Z,19.05
2022-08-26T03:02:33.361Z,19.50
2022-08-26T03:07:34.552Z,19.50
2022-08-26T03:12:37.106Z,19.05
2022-08-26T03:17:38.057Z,19.30
2022-08-26T03:22:40.863Z,18.35
2022-08-26T03:27:43.654Z,18.42
2022-08-26T03:32:44.528Z,19.95
2022-08-26T03:37:45.217Z,19.40
2022-08-26T03:42:47.739Z,17.90
2022-08-26T03:47:49.326Z,19.40
2022-08-26T03:52:51.619Z,19.15
2022-08-26T03:57:54.167Z,18.27
2022-08-26T04:02:56.169Z,19.35
2022-08-26T04:07:56.973Z,19.23
2022-08-26T04:13:00.522Z,18.77
2022-08-26T04:18:01.197Z,19.10
2022-08-26T04:23:01.976Z,18.40
2022-08-26T04:28:04.494Z,18.58
2022-08-26T04:33:12.742Z,17.13
2022-08-26T04:38:14.264Z,19.55
2022-08-26T04:43:16.398Z,18.98
2022-08-26T04:48:17.082Z,18.27
2022-08-26T04:53:19.061Z,17.70
2022-08-26T04:58:23.533Z,18.52
2022-08-26T05:03:25.500Z,18.50
2022-08-26T05:08:27.076Z,18.95
2022-08-26T05:13:29.591Z,19.20
2022-08-26T05:18:30.379Z,18.98
2022-08-26T05:23:32.647Z,18.13
2022-08-26T05:28:34.924Z,17.30
2022-08-26T05:33:36.008Z,17.70
2022-08-26T05:38:36.966Z,18.55
2022-08-26T05:43:38.976Z,17.65
2022-08-26T05:48:44.385Z,17.83
2022-08-26T05:53:54.369Z,18.02
2022-08-26T05:58:58.393Z,16.95
2022-08-26T06:04:02.486Z,18.05
2022-08-26T06:09:05.090Z,17.00
2022-08-26T06:14:08.760Z,16.10
2022-08-26T06:19:11.930Z,16.42
2022-08-26T06:24:32.314Z,18.08
2022-08-26T06:29:36.372Z,17.08
2022-08-26T06:34:38.526Z,17.27
2022-08-26T06:39:41.106Z,14.18
2022-08-26T06:44:44.702Z,15.93
2022-08-26T06:49:45.577Z,14.45
2022-08-26T06:54:46.260Z,14.77
2022-08-26T06:59:48.888Z,15.13
2022-08-26T07:04:51.962Z,13.93
2022-08-26T07:09:57.472Z,14.27
2022-08-26T07:14:59.726Z,13.35
2022-08-26T07:20:01.315Z,15.32
2022-08-26T07:25:02.198Z,14.20
2022-08-26T07:30:07.743Z,13.10
2022-08-26T07:35:09.241Z,12.85
2022-08-26T07:40:10.699Z,14.57
2022-08-26T07:45:14.198Z,12.43
2022-08-26T07:50:15.002Z,12.90
2022-08-26T07:55:16.673Z,13.82
2022-08-26T08:00:18.881Z,12.65
2022-08-26T08:05:22.846Z,11.57
2022-08-26T08:10:34.577Z,12.45
2022-08-26T08:15:37.670Z,13.63
2022-08-26T08:20:42.283Z,11.70
2022-08-26T08:25:45.644Z,10.98
2022-08-26T08:30:47.867Z,11.75
2022-08-26T08:35:49.247Z,10.98
2022-08-26T08:40:51.360Z,11.40
2022-08-26T08:45:59.765Z,9.52
2022-08-26T08:51:09.112Z,10.75
2022-08-26T08:56:20.613Z,9.93
2022-08-26T09:01:37.130Z,9.27
2022-08-26T09:06:41.060Z,10.48
2022-08-26T09:11:44.386Z,9.48
2022-08-26T09:16:52.649Z,9.45
2022-08-26T09:21:56.903Z,8.68
2022-08-26T09:26:59.369Z,8.13
2022-08-26T09:32:21.251Z,8.52
2022-08-26T09:37:38.357Z,8.43
2022-08-26T09:42:40.049Z,9.70
2022-08-26T09:47:55.017Z,8.85
2022-08-26T09:53:12.830Z,8.73
2022-08-26T09:58:15.914Z,8.25
2022-08-26T10:03:27.203Z,8.18
2022-08-26T10:08:32.489Z,8.05
2022-08-26T10:13:37.205Z,7.95
2022-08-26T10:18:46.187Z,8.27
2022-08-26T10:23:50.871Z,9.05
2022-08-26T10:28:57.672Z,8.60
2022-08-26T10:34:00.791Z,8.82
2022-08-26T10:39:05.844Z,7.97
2022-08-26T10:44:12.734Z,7.82
2022-08-26T10:49:17.847Z,8.23
2022-08-26T10:54:25.229Z,7.30
2022-08-26T10:59:36.951Z,7.75
2022-08-26T11:04:48.510Z,7.75
2022-08-26T11:09:49.737Z,7.00
2022-08-26T11:14:58.776Z,6.93
2022-08-26T11:20:09.257Z,6.78
2022-08-26T11:25:15.423Z,7.55
2022-08-26T11:30:45.123Z,6.55
2022-08-26T11:35:50.102Z,6.72
2022-08-26T11:41:08.927Z,5.70
2022-08-26T11:46:12.128Z,4.60
2022-08-26T11:51:23.333Z,5.40
2022-08-26T11:56:31.606Z,4.28
2022-08-26T12:01:35.778Z,4.32
2022-08-26T12:06:45.227Z,4.38
2022-08-26T12:11:46.651Z,4.50
2022-08-26T12:16:48.018Z,4.43
2022-08-26T12:21:50.713Z,5.88
2022-08-26T12:27:11.969Z,5.97
2022-08-26T12:32:17.474Z,5.47
2022-08-26T12:37:19.915Z,5.15
2022-08-26T12:42:41.024Z,4.85
2022-08-26T12:47:44.659Z,5.82
2022-08-26T12:52:56.398Z,5.28
2022-08-26T12:58:21.209Z,5.55
2022-08-26T13:03:46.219Z,5.35
2022-08-26T13:08:49.632Z,4.38
2022-08-26T13:13:53.519Z,4.07
2022-08-26T13:18:56.132Z,4.60
2022-08-26T13:24:02.400Z,4.68
2022-08-26T13:29:05.350Z,4.65
2022-08-26T13:34:10.396Z,4.72
2022-08-26T13:39:13.472Z,4.70
2022-08-26T13:44:14.581Z,4.38
2022-08-26T13:49:15.664Z,5.20
2022-08-26T13:54:17.829Z,4.53
2022-08-26T13:59:19.401Z,5.00
2022-08-26T14:04:27.370Z,4.60
2022-08-26T14:09:29.881Z,4.78
2022-08-26T14:14:30.627Z,4.95
2022-08-26T14:19:32.914Z,4.60
2022-08-26T14:24:34.947Z,4.50
2022-08-26T14:29:35.627Z,4.10
2022-08-26T14:34:36.502Z,4.78
2022-08-26T14:39:38.536Z,4.30
2022-08-26T14:44:39.950Z,4.45
2022-08-26T14:49:40.639Z,4.80
2022-08-26T14:54:42.814Z,4.50
2022-08-26T14:59:49.852Z,4.80
2022-08-26T15:04:51.409Z,4.63
2022-08-26T15:09:53.477Z,4.78
2022-08-26T15:14:54.233Z,5.28
2022-08-26T15:19:55.229Z,3.90
2022-08-26T15:24:57.512Z,4.57
2022-08-26T15:29:58.262Z,4.75
2022-08-26T15:34:59.079Z,4.60
2022-08-26T15:40:01.202Z,4.72
2022-08-26T15:45:01.927Z,4.38
2022-08-26T15:50:02.640Z,4.35
2022-08-26T15:55:05.387Z,4.80
2022-08-26T16:00:07.692Z,4.00
2022-08-26T16:05:13.554Z,4.07
2022-08-26T16:10:15.585Z,4.22
2022-08-26T16:15:16.803Z,3.85
2022-08-26T16:20:17.692Z,4.32
2022-08-26T16:25:20.187Z,4.22
2022-08-26T16:30:21.889Z,3.72
2022-08-26T16:35:23.244Z,4.00
2022-08-26T16:40:25.840Z,4.30
2022-08-26T16:45:27.583Z,4.82
2022-08-26T16:50:28.372Z,4.25
2022-08-26T16:55:30.553Z,4.82
2022-08-26T17:00:34.608Z,4.25
2022-08-26T17:05:36.336Z,4.38
2022-08-26T17:10:38.565Z,4.50
2022-08-26T17:15:39.558Z,4.97
2022-08-26T17:20:40.252Z,4.63
2022-08-26T17:25:42.543Z,3.78
2022-08-26T17:30:44.379Z,4.40
2022-08-26T17:35:45.085Z,4.32
2022-08-26T17:40:47.223Z,4.65
2022-08-26T17:45:48.248Z,5.15
2022-08-26T17:50:49.480Z,4.88
2022-08-26T17:55:52.624Z,4.55
2022-08-26T18:00:54.662Z,4.57
2022-08-26T18:05:55.416Z,5.00
2022-08-26T18:10:57.507Z,5.65
2022-08-26T18:15:58.318Z,5.25
2022-08-26T18:21:01.844Z,6.03
2022-08-26T18:26:04.136Z,4.72
2022-08-26T18:31:07.741Z,5.40
2022-08-26T18:36:09.061Z,5.13
2022-08-26T18:41:11.230Z,5.07
2022-08-26T18:46:12.434Z,5.70
2022-08-26T18:51:17.274Z,5.47
2022-08-26T18:56:19.903Z,5.93
2022-08-26T19:01:25.450Z,5.68
2022-08-26T19:06:32.810Z,5.38
2022-08-26T19:11:37.508Z,5.32
2022-08-26T19:16:45.996Z,5.03
2022-08-26T19:21:47.756Z,5.45
2022-08-26T19:26:55.203Z,5.07
2022-08-26T19:31:59.016Z,5.05
2022-08-26T19:36:59.752Z,4.40
2022-08-26T19:42:01.842Z,4.50
2022-08-26T19:47:03.562Z,4.40
2022-08-26T19:52:05.642Z,4.43
2022-08-26T19:57:08.017Z,4.97
2022-08-26T20:02:11.098Z,4.97
2022-08-26T20:07:15.351Z,4.47
2022-08-26T20:12:20.474Z,4.55
2022-08-26T20:17:21.212Z,5.90
2022-08-26T20:22:22.236Z,5.22
2022-08-26T20:27:37.873Z,4.85
2022-08-26T20:32:39.954Z,4.38
2022-08-26T20:37:41.709Z,6.28
2022-08-26T20:42:43.741Z,5.78
2022-08-26T20:47:44.617Z,6.00
2022-08-26T20:52:46.337Z,5.45
2022-08-26T20:57:49.458Z,5.60
2022-08-26T21:02:50.488Z,4.78
2022-08-26T21:07:51.467Z,5.57
2022-08-26T21:12:53.494Z,6.47
2022-08-26T21:17:54.283Z,5.90
2022-08-26T21:22:54.970Z,6.65
2022-08-26T21:27:57.297Z,6.20
2022-08-26T21:32:58.004Z,7.35
2022-08-26T21:37:58.897Z,6.88
2022-08-26T21:43:00.888Z,7.90
2022-08-26T21:48:01.629Z,7.65
2022-08-26T21:53:02.336Z,7.65
2022-08-26T21:58:04.370Z,7.80
2022-08-26T22:03:05.122Z,7.85
2022-08-26T22:08:05.923Z,8.10
2022-08-26T22:13:08.525Z,8.80
2022-08-26T22:18:09.722Z,7.35
2022-08-26T22:23:11.135Z,7.47
2022-08-26T22:28:13.279Z,7.95
2022-08-26T22:33:14.473Z,7.90
2022-08-26T22:38:15.490Z,8.20
2022-08-26T22:43:18.300Z,8.50
2022-08-26T22:48:21.633Z,7.97
2022-08-26T22:53:22.784Z,8.05
2022-08-26T22:58:30.866Z,8.43
2022-08-26T23:03:31.947Z,7.63
2022-08-26T23:08:32.669Z,7.30
2022-08-26T23:13:34.663Z,7.68
2022-08-26T23:18:35.789Z,6.88
2022-08-26T23:23:36.488Z,7.38
2022-08-26T23:28:39.621Z,7.90
2022-08-26T23:33:57.864Z,8.50
2022-08-26T23:38:59.054Z,8.75
2022-08-26T23:44:03.540Z,9.32
2022-08-26T23:49:05.459Z,8.93
2022-08-26T23:54:07.176Z,8.02
2022-08-26T23:59:10.284Z,9.15
